Time;durP1;ratioP1;P1;durP2;ratioP2;P2;SDS_P1;SDS_P2;PMS_P1;PMS_P2;Temp;Humidity;BMP_temperature;BMP_pressure;BME280_temperature;BME280_humidity;BME280_pressure;Samples;Min_cycle;Max_cycle;Signal;HPM_P1;HPM_P2
2022/06/20 00:01:00;;;;;;;5.22;0.40;;;18.00;99.90;;;;;;4302068;33;20841;-65
2022/06/20 00:03:30;;;;;;;0.35;0.35;;;18.00;99.90;;;;;;4301106;33;20084;-65
2022/06/20 00:05:56;;;;;;;;;;;18.00;99.90;;;;;;4303199;33;20462;-64
2022/06/20 00:08:22;;;;;;;0.20;0.20;;;17.90;99.90;;;;;;4302728;33;19963;-64
2022/06/20 00:10:49;;;;;;;0.20;0.20;;;17.80;99.90;;;;;;4302914;33;20101;-64
2022/06/20 00:13:21;;;;;;;0.30;0.30;;;17.80;99.90;;;;;;4303356;33;20060;-64
2022/06/20 00:15:48;;;;;;;0.47;0.47;;;17.60;99.90;;;;;;4303005;33;20095;-64
2022/06/20 00:18:15;;;;;;;1.75;0.70;;;17.50;99.90;;;;;;4303443;33;20092;-64
2022/06/20 00:20:40;;;;;;;0.20;0.20;;;17.50;99.90;;;;;;4299185;33;20795;-65
2022/06/20 00:23:06;;;;;;;0.25;0.25;;;17.40;99.90;;;;;;4282375;33;20080;-64
2022/06/20 00:25:32;;;;;;;1.27;0.57;;;17.60;99.90;;;;;;4300573;33;20060;-64
2022/06/20 00:27:58;;;;;;;0.20;0.20;;;17.70;99.90;;;;;;4300636;33;20104;-64
2022/06/20 00:30:24;;;;;;;0.75;0.50;;;17.50;99.90;;;;;;4305140;33;20218;-64
2022/06/20 00:32:50;;;;;;;0.20;0.20;;;17.50;99.90;;;;;;4302002;33;20474;-64
2022/06/20 00:35:16;;;;;;;1.15;0.95;;;17.40;99.90;;;;;;4303386;33;20385;-64
2022/06/20 00:37:42;;;;;;;0.35;0.35;;;17.40;99.90;;;;;;4302640;33;20127;-64
2022/06/20 00:40:34;;;;;;;0.40;0.40;;;17.40;99.90;;;;;;4302891;33;20107;-64
2022/06/20 00:43:00;;;;;;;0.30;0.30;;;17.40;99.90;;;;;;4301699;33;20522;-64
2022/06/20 00:45:29;;;;;;;0.40;0.40;;;17.40;99.90;;;;;;4301632;33;20147;-64
2022/06/20 00:48:04;;;;;;;1.23;0.95;;;17.40;99.90;;;;;;4302316;33;20544;-64
2022/06/20 00:50:32;;;;;;;0.20;0.20;;;17.30;99.90;;;;;;4301692;33;20107;-64
2022/06/20 00:53:21;;;;;;;2.40;0.50;;;17.40;99.90;;;;;;4282897;33;20626;-65
2022/06/20 00:55:53;;;;;;;0.40;0.40;;;17.40;99.90;;;;;;4302222;33;20064;-65
2022/06/20 00:58:42;;;;;;;3.65;0.85;;;17.50;99.90;;;;;;4300264;33;20099;-65
2022/06/20 01:01:12;;;;;;;0.25;0.25;;;17.60;99.90;;;;;;4302076;33;20108;-65
2022/06/20 01:03:44;;;;;;;0.22;0.22;;;17.70;99.90;;;;;;4302045;33;20107;-65
2022/06/20 01:06:13;;;;;;;0.28;0.28;;;17.60;99.90;;;;;;4300969;33;20109;-65
2022/06/20 01:08:52;;;;;;;5.70;0.68;;;17.60;99.90;;;;;;4302820;33;20160;-65
2022/06/20 01:11:22;;;;;;;0.70;0.50;;;17.50;99.90;;;;;;4303720;33;20104;-65
2022/06/20 01:13:49;;;;;;;0.30;0.30;;;17.40;99.90;;;;;;4302906;33;20154;-65
2022/06/20 01:16:21;;;;;;;1.65;0.28;;;17.40;99.90;;;;;;4303190;33;20121;-65
2022/06/20 01:18:48;;;;;;;2.25;0.40;;;17.40;99.90;;;;;;4301795;33;20068;-65
2022/06/20 01:21:18;;;;;;;7.32;1.10;;;17.30;99.90;;;;;;4294607;33;20502;-65
2022/06/20 01:24:08;;;;;;;0.30;0.30;;;17.20;99.90;;;;;;4287077;33;20100;-65
2022/06/20 01:26:40;;;;;;;0.77;0.70;;;17.10;99.90;;;;;;4301796;33;20064;-65
2022/06/20 01:29:09;;;;;;;0.30;0.30;;;17.00;99.90;;;;;;4302585;33;20072;-65
2022/06/20 01:31:42;;;;;;;0.28;0.28;;;16.90;99.90;;;;;;4297982;33;84054;-65
2022/06/20 01:34:07;;;;;;;0.30;0.30;;;16.80;99.90;;;;;;4302134;33;20106;-65
2022/06/20 01:37:36;;;;;;;0.37;0.37;;;16.70;99.90;;;;;;4303054;33;20061;-65
2022/06/20 01:39:22;;;;;;;0.85;0.30;;;16.70;99.90;;;;;;4299407;33;20088;-65
2022/06/20 01:42:20;;;;;;;0.50;0.40;;;16.80;99.90;;;;;;4299585;33;20203;-65
2022/06/20 01:44:37;;;;;;;0.95;0.68;;;16.80;99.90;;;;;;4300570;33;20150;-65
2022/06/20 01:47:03;;;;;;;0.20;0.20;;;16.80;99.90;;;;;;4299719;33;20129;-65
2022/06/20 01:49:31;;;;;;;0.10;0.10;;;16.60;99.90;;;;;;4300762;33;20073;-65
2022/06/20 01:52:21;;;;;;;0.40;0.40;;;16.50;99.90;;;;;;4287124;33;20092;-65
2022/06/20 01:54:53;;;;;;;0.35;0.35;;;16.40;99.90;;;;;;4293125;33;20145;-65
2022/06/20 01:57:20;;;;;;;0.40;0.40;;;16.40;99.90;;;;;;4301743;33;20065;-65
2022/06/20 01:59:55;;;;;;;0.40;0.40;;;16.30;99.90;;;;;;4303348;33;20092;-65
2022/06/20 02:02:20;;;;;;;0.30;0.30;;;16.40;99.90;;;;;;4301220;33;20088;-65
2022/06/20 02:04:46;;;;;;;8.00;0.62;;;16.30;99.90;;;;;;4302051;33;20092;-65
2022/06/20 02:07:13;;;;;;;0.68;0.50;;;16.40;99.90;;;;;;4303254;33;20141;-65
2022/06/20 02:09:40;;;;;;;0.32;0.32;;;16.50;99.90;;;;;;4305217;33;20080;-65
2022/06/20 02:12:07;;;;;;;0.30;0.30;;;16.70;99.90;;;;;;4304179;33;20075;-65
2022/06/20 02:14:46;;;;;;;0.43;0.43;;;16.70;99.90;;;;;;4306642;33;20095;-65
2022/06/20 02:17:18;;;;;;;0.30;0.30;;;16.70;99.90;;;;;;4306480;33;20670;-65
2022/06/20 02:19:48;;;;;;;0.95;0.70;;;16.90;99.90;;;;;;4305199;33;20201;-65
2022/06/20 02:22:17;;;;;;;0.50;0.50;;;16.70;99.90;;;;;;4287637;33;20536;-65
2022/06/20 02:24:46;;;;;;;3.85;0.62;;;16.80;99.90;;;;;;4297734;33;20085;-64
2022/06/20 02:27:19;;;;;;;0.20;0.20;;;16.60;99.90;;;;;;4302442;33;20064;-64
2022/06/20 02:29:45;;;;;;;0.70;0.60;;;16.50;99.90;;;;;;4304898;33;20541;-64
2022/06/20 02:32:19;;;;;;;3.65;0.35;;;16.50;99.90;;;;;;4303750;33;20092;-64
2022/06/20 02:34:45;;;;;;;0.40;0.40;;;16.50;99.90;;;;;;4302276;33;20088;-64
2022/06/20 02:37:19;;;;;;;0.37;0.37;;;16.60;99.90;;;;;;4305189;33;20056;-64
2022/06/20 02:39:45;;;;;;;0.70;0.40;;;16.50;99.90;;;;;;4305351;33;20120;-65
2022/06/20 02:42:18;;;;;;;0.32;0.32;;;16.60;99.90;;;;;;4304831;33;20545;-65
2022/06/20 02:44:47;;;;;;;1.85;0.47;;;16.80;99.90;;;;;;4304221;33;20121;-65
2022/06/20 02:47:14;;;;;;;0.75;0.50;;;16.80;99.90;;;;;;4302659;33;20157;-65
2022/06/20 02:49:41;;;;;;;1.35;0.93;;;16.80;99.90;;;;;;4304150;33;20096;-65
2022/06/20 02:52:12;;;;;;;1.95;0.50;;;16.80;99.90;;;;;;4285903;33;20079;-65
2022/06/20 02:54:39;;;;;;;6.87;0.73;;;16.80;99.90;;;;;;4297209;33;20093;-65
2022/06/20 02:57:12;;;;;;;0.30;0.30;;;16.70;99.90;;;;;;4303769;33;20100;-65
2022/06/20 02:59:44;;;;;;;1.95;0.98;;;16.50;99.90;;;;;;4302813;33;20084;-65
2022/06/20 03:02:12;;;;;;;0.40;0.40;;;16.50;99.90;;;;;;4302863;33;20821;-65
2022/06/20 03:04:45;;;;;;;0.30;0.30;;;16.50;99.90;;;;;;4305796;33;20084;-65
2022/06/20 03:07:15;;;;;;;0.45;0.40;;;16.40;99.90;;;;;;4305056;33;20527;-65
2022/06/20 03:09:43;;;;;;;4.57;1.40;;;16.30;99.90;;;;;;4304330;33;20136;-65
2022/06/20 03:12:09;;;;;;;0.40;0.40;;;16.40;99.90;;;;;;4303961;33;20116;-65
2022/06/20 03:14:41;;;;;;;0.30;0.30;;;16.30;99.90;;;;;;4303683;33;20099;-65
2022/06/20 03:17:07;;;;;;;1.67;0.45;;;16.50;99.90;;;;;;4304733;33;20097;-65
2022/06/20 03:19:35;;;;;;;0.30;0.30;;;16.50;99.90;;;;;;4302752;33;20080;-65
2022/06/20 03:22:05;;;;;;;1.10;0.62;;;16.70;99.90;;;;;;4285881;33;20112;-65
2022/06/20 03:24:31;;;;;;;0.40;0.40;;;16.70;99.90;;;;;;4294714;33;20072;-65
2022/06/20 03:26:58;;;;;;;4.03;0.65;;;16.70;99.90;;;;;;4303642;33;20220;-65
2022/06/20 03:29:25;;;;;;;0.50;0.50;;;16.60;99.90;;;;;;4301594;33;20075;-65
2022/06/20 03:31:51;;;;;;;0.40;0.40;;;16.60;99.90;;;;;;4302689;33;20532;-65
2022/06/20 03:34:17;;;;;;;0.60;0.50;;;16.60;99.90;;;;;;4302991;33;20075;-65
2022/06/20 03:36:46;;;;;;;0.30;0.30;;;16.60;99.90;;;;;;4303580;33;20092;-65
2022/06/20 03:39:12;;;;;;;0.65;0.65;;;16.50;99.90;;;;;;4304553;33;20140;-65
2022/06/20 03:41:39;;;;;;;0.30;0.30;;;16.50;99.90;;;;;;4303734;33;20068;-65
2022/06/20 03:44:14;;;;;;;0.62;0.62;;;16.60;99.90;;;;;;4303910;33;20150;-65
2022/06/20 03:46:46;;;;;;;0.40;0.40;;;16.70;99.90;;;;;;4301239;33;20471;-65
2022/06/20 03:49:26;;;;;;;0.98;0.40;;;16.70;99.90;;;;;;4305257;33;20088;-65
2022/06/20 03:52:01;;;;;;;1.08;0.73;;;16.50;99.90;;;;;;4287609;33;20330;-65
2022/06/20 03:54:33;;;;;;;0.40;0.40;;;16.40;99.90;;;;;;4296229;33;20200;-65
2022/06/20 03:57:07;;;;;;;0.30;0.30;;;16.50;99.90;;;;;;4304118;33;20092;-65
2022/06/20 03:59:43;;;;;;;0.37;0.37;;;16.40;99.90;;;;;;4303851;33;20068;-65
2022/06/20 04:02:31;;;;;;;0.50;0.50;;;16.50;99.90;;;;;;4303335;33;20068;-65
2022/06/20 04:05:05;;;;;;;0.80;0.65;;;16.40;99.90;;;;;;4301857;33;20111;-65
2022/06/20 04:07:36;;;;;;;1.35;0.55;;;16.40;99.90;;;;;;4303611;33;20435;-65
2022/06/20 04:11:10;;;;;;;0.30;0.30;;;16.20;99.90;;;;;;4302751;33;20084;-65
2022/06/20 04:13:26;;;;;;;0.40;0.40;;;16.20;99.90;;;;;;4301216;33;20101;-65
2022/06/20 04:16:15;;;;;;;3.35;0.82;;;16.10;99.90;;;;;;4302412;33;20092;-64
2022/06/20 04:18:50;;;;;;;0.37;0.37;;;16.10;99.90;;;;;;4300340;33;20068;-64
2022/06/20 04:21:28;;;;;;;1.02;0.50;;;16.20;99.90;;;;;;4285589;33;20076;-64
2022/06/20 04:24:15;;;;;;;0.62;0.55;;;16.20;99.90;;;;;;4240450;33;20077;-64
2022/06/20 04:26:46;;;;;;;6.82;0.60;;;16.30;99.90;;;;;;4242579;33;20441;-64
2022/06/20 04:29:35;;;;;;;0.35;0.32;;;16.40;99.90;;;;;;4250664;33;20161;-64
2022/06/20 04:32:12;;;;;;;0.32;0.32;;;16.40;99.90;;;;;;4266458;33;20115;-65
2022/06/20 04:34:43;;;;;;;0.40;0.40;;;16.60;99.90;;;;;;4298948;33;20438;-65
2022/06/20 04:37:13;;;;;;;;;;;16.70;99.90;;;;;;4301711;33;20148;-65
2022/06/20 04:39:49;;;;;;;16.17;1.27;;;16.70;99.90;;;;;;4297900;33;19944;-65
2022/06/20 04:42:33;;;;;;;0.30;0.30;;;16.70;99.90;;;;;;4299654;33;20470;-65
2022/06/20 04:45:10;;;;;;;0.35;0.35;;;16.50;99.90;;;;;;4299964;33;20123;-65
2022/06/20 04:47:58;;;;;;;2.15;0.80;;;16.40;99.90;;;;;;4303166;33;20092;-64
2022/06/20 04:50:32;;;;;;;0.30;0.30;;;16.40;99.90;;;;;;4299633;33;20096;-64
2022/06/20 04:53:05;;;;;;;0.43;0.43;;;16.40;99.90;;;;;;4256765;33;20721;-64
2022/06/20 04:55:32;;;;;;;0.43;0.43;;;16.40;99.90;;;;;;4271721;33;20177;-64
2022/06/20 04:58:01;;;;;;;0.43;0.40;;;16.30;99.90;;;;;;4302094;33;20171;-64
2022/06/20 05:00:35;;;;;;;0.22;0.22;;;16.40;99.90;;;;;;4297486;33;20085;-64
2022/06/20 05:03:01;;;;;;;0.43;0.43;;;16.40;99.90;;;;;;4281155;33;20075;-67
2022/06/20 05:05:32;;;;;;;12.93;0.60;;;16.50;99.90;;;;;;4254777;33;22066;-67
2022/06/20 05:07:59;;;;;;;;;;;16.30;99.90;;;;;;4248015;33;20107;-67
2022/06/20 05:10:38;;;;;;;0.30;0.30;;;16.30;99.90;;;;;;4243220;33;20302;-67
2022/06/20 05:13:12;;;;;;;0.40;0.40;;;16.30;99.90;;;;;;4255191;33;20084;-66
2022/06/20 05:15:46;;;;;;;0.50;0.50;;;16.20;99.90;;;;;;4271959;33;20087;-66
2022/06/20 05:18:25;;;;;;;2.55;0.77;;;16.10;99.90;;;;;;4241273;33;20314;-67
2022/06/20 05:20:54;;;;;;;0.70;0.70;;;16.00;99.90;;;;;;4197765;33;21032;-66
2022/06/20 05:23:32;;;;;;;0.45;0.45;;;15.90;99.90;;;;;;4170279;33;21098;-67
2022/06/20 05:26:00;;;;;;;0.30;0.30;;;15.80;99.90;;;;;;4167938;33;20320;-67
2022/06/20 05:28:27;;;;;;;0.20;0.20;;;15.80;99.90;;;;;;4222405;33;20087;-66
2022/06/20 05:30:54;;;;;;;0.30;0.30;;;15.80;99.90;;;;;;4222067;33;20212;-66
2022/06/20 05:33:41;;;;;;;0.88;0.35;;;15.70;99.90;;;;;;4202621;33;20270;-66
2022/06/20 05:36:22;;;;;;;0.30;0.30;;;15.70;99.90;;;;;;4195057;33;20204;-66
2022/06/20 05:39:11;;;;;;;1.08;0.55;;;15.80;99.90;;;;;;4214353;33;20099;-66
2022/06/20 05:41:39;;;;;;;2.37;0.80;;;15.70;99.90;;;;;;4220997;33;20266;-66
2022/06/20 05:44:09;;;;;;;7.87;0.82;;;15.60;99.90;;;;;;4243501;33;20652;-66
2022/06/20 05:46:50;;;;;;;0.50;0.50;;;15.50;99.90;;;;;;4275816;33;20405;-66
2022/06/20 05:49:19;;;;;;;;;;;15.50;99.90;;;;;;4257183;33;20177;-66
2022/06/20 05:51:46;;;;;;;0.32;0.32;;;15.50;99.90;;;;;;4249196;33;20131;-66
2022/06/20 05:54:32;;;;;;;0.30;0.30;;;15.40;99.90;;;;;;4269451;33;20360;-66
2022/06/20 05:57:02;;;;;;;0.40;0.40;;;15.50;99.90;;;;;;4267049;33;20163;-66
2022/06/20 05:59:31;;;;;;;5.30;0.93;;;15.50;99.90;;;;;;4269103;33;20076;-66
2022/06/20 06:02:09;;;;;;;0.45;0.45;;;15.60;99.90;;;;;;4260647;33;20374;-66
2022/06/20 06:04:43;;;;;;;0.30;0.25;;;15.50;99.90;;;;;;4242976;33;21318;-66
2022/06/20 06:07:21;;;;;;;1.15;0.70;;;15.60;99.90;;;;;;4249998;33;21025;-66
2022/06/20 06:09:55;;;;;;;0.20;0.20;;;15.50;99.90;;;;;;4275169;33;20600;-67
2022/06/20 06:12:27;;;;;;;0.40;0.40;;;15.50;99.90;;;;;;4273944;33;20673;-68
2022/06/20 06:15:01;;;;;;;0.55;0.45;;;15.40;99.90;;;;;;4269717;33;20124;-66
2022/06/20 06:17:36;;;;;;;0.30;0.30;;;15.30;99.90;;;;;;4263408;33;20493;-66
2022/06/20 06:20:10;;;;;;;2.30;0.68;;;15.30;99.90;;;;;;4263708;33;20107;-66
2022/06/20 06:22:39;;;;;;;1.40;0.52;;;15.30;99.90;;;;;;4252786;33;20088;-67
2022/06/20 06:25:21;;;;;;;0.45;0.43;;;15.30;99.90;;;;;;4261009;33;20396;-66
2022/06/20 06:27:48;;;;;;;20.40;0.57;;;15.30;99.90;;;;;;4266210;33;20180;-67
2022/06/20 06:30:20;;;;;;;0.60;0.60;;;15.30;99.90;;;;;;4251181;33;20125;-67
2022/06/20 06:33:03;;;;;;;0.30;0.30;;;15.40;99.90;;;;;;4256702;33;20096;-67
2022/06/20 06:35:34;;;;;;;0.45;0.45;;;15.40;99.90;;;;;;4244295;33;20212;-66
2022/06/20 06:38:02;;;;;;;2.25;0.62;;;15.60;99.90;;;;;;4268126;33;20136;-67
2022/06/20 06:40:48;;;;;;;0.43;0.43;;;15.80;99.90;;;;;;4261792;33;20096;-67
2022/06/20 06:43:19;;;;;;;0.32;0.32;;;15.80;99.90;;;;;;4266795;33;20923;-68
2022/06/20 06:45:47;;;;;;;1.17;0.50;;;16.00;99.90;;;;;;4276157;33;20091;-67
2022/06/20 06:48:25;;;;;;;1.37;1.25;;;15.70;99.90;;;;;;4264369;33;20267;-67
2022/06/20 06:50:57;;;;;;;0.68;0.50;;;15.80;99.90;;;;;;4268746;33;20548;-67
2022/06/20 06:53:43;;;;;;;0.45;0.45;;;15.80;99.90;;;;;;4266911;33;20100;-67
2022/06/20 06:56:18;;;;;;;4.37;0.73;;;15.80;99.90;;;;;;4270978;33;20101;-67
2022/06/20 06:58:51;;;;;;;0.93;0.45;;;15.80;99.90;;;;;;4258324;33;20088;-68
2022/06/20 07:01:24;;;;;;;0.40;0.40;;;15.80;99.90;;;;;;4263358;33;20215;-67
2022/06/20 07:03:56;;;;;;;1.95;1.12;;;15.90;99.90;;;;;;4247495;33;20218;-67
2022/06/20 07:06:28;;;;;;;0.47;0.47;;;16.20;99.90;;;;;;4243069;33;20119;-67
2022/06/20 07:09:04;;;;;;;0.45;0.45;;;16.20;99.90;;;;;;4265705;33;20080;-66
2022/06/20 07:11:33;;;;;;;4.25;0.68;;;16.20;99.90;;;;;;4264519;33;20095;-66
2022/06/20 07:14:20;;;;;;;0.43;0.43;;;16.10;99.90;;;;;;4269256;33;20206;-67
2022/06/20 07:16:54;;;;;;;0.30;0.30;;;16.20;99.90;;;;;;4269940;33;20096;-67
2022/06/20 07:19:20;;;;;;;2.17;0.65;;;16.10;99.90;;;;;;4258560;33;20092;-67
2022/06/20 07:21:46;;;;;;;0.30;0.30;;;16.20;99.90;;;;;;4262100;33;20091;-67
2022/06/20 07:24:17;;;;;;;0.40;0.40;;;16.10;99.90;;;;;;4250630;33;20261;-68
2022/06/20 07:26:47;;;;;;;;;;;16.10;99.90;;;;;;4252685;33;20114;-67
2022/06/20 07:29:19;;;;;;;0.40;0.40;;;16.10;99.90;;;;;;4234947;33;20071;-67
2022/06/20 07:31:50;;;;;;;0.35;0.35;;;16.10;99.90;;;;;;4225748;33;20121;-67
2022/06/20 07:34:30;;;;;;;0.80;0.40;;;16.00;99.90;;;;;;4213783;33;20124;-68
2022/06/20 07:37:00;;;;;;;0.30;0.30;;;16.10;99.90;;;;;;4226253;33;20275;-68
2022/06/20 07:39:36;;;;;;;0.50;0.50;;;16.10;99.90;;;;;;4261743;33;20100;-68
2022/06/20 07:42:08;;;;;;;0.40;0.40;;;16.10;99.90;;;;;;4266917;33;20109;-67
2022/06/20 07:44:40;;;;;;;0.35;0.35;;;16.20;99.90;;;;;;4279802;33;20347;-67
2022/06/20 07:47:15;;;;;;;0.60;0.60;;;16.20;99.90;;;;;;4255176;33;20617;-67
2022/06/20 07:49:48;;;;;;;0.50;0.50;;;16.20;99.90;;;;;;4242535;33;20104;-68
2022/06/20 07:52:38;;;;;;;0.40;0.40;;;16.40;99.90;;;;;;4246029;33;20369;-67
2022/06/20 07:55:10;;;;;;;0.57;0.57;;;16.40;99.90;;;;;;4242193;33;20217;-68
2022/06/20 07:57:42;;;;;;;0.30;0.30;;;16.50;99.90;;;;;;4255422;33;20527;-68
2022/06/20 08:00:10;;;;;;;2.22;0.90;;;16.40;99.90;;;;;;4250029;33;20275;-67
2022/06/20 08:03:01;;;;;;;0.43;0.43;;;16.40;99.90;;;;;;4245615;33;20486;-67
2022/06/20 08:05:34;;;;;;;0.70;0.62;;;16.30;99.90;;;;;;4225436;33;20272;-67
2022/06/20 08:08:08;;;;;;;0.55;0.55;;;16.30;99.90;;;;;;4252053;33;20150;-66
2022/06/20 08:10:49;;;;;;;0.43;0.37;;;16.20;99.90;;;;;;4258468;33;20080;-67
2022/06/20 08:13:17;;;;;;;;;;;16.30;99.90;;;;;;4257849;33;20445;-67
2022/06/20 08:15:54;;;;;;;0.40;0.40;;;16.30;99.90;;;;;;4268146;33;19960;-67
2022/06/20 08:18:22;;;;;;;0.60;0.40;;;16.40;99.90;;;;;;4264158;33;20100;-67
2022/06/20 08:20:56;;;;;;;1.48;0.50;;;16.40;99.90;;;;;;4269568;33;20194;-67
2022/06/20 08:23:30;;;;;;;0.20;0.20;;;16.30;99.90;;;;;;4258468;33;20152;-67
2022/06/20 08:25:58;;;;;;;0.40;0.40;;;16.20;99.90;;;;;;4263368;33;20665;-67
2022/06/20 08:28:33;;;;;;;0.75;0.75;;;16.30;99.90;;;;;;4262840;33;20126;-67
2022/06/20 08:31:11;;;;;;;1.27;0.90;;;16.20;99.90;;;;;;4255697;33;20308;-67
2022/06/20 08:33:44;;;;;;;0.70;0.70;;;16.30;99.90;;;;;;4234867;33;20276;-67
2022/06/20 08:36:35;;;;;;;0.40;0.40;;;16.40;99.90;;;;;;4240127;33;20771;-67
2022/06/20 08:39:23;;;;;;;0.40;0.40;;;16.50;99.90;;;;;;4255760;33;20257;-67
2022/06/20 08:42:09;;;;;;;3.30;1.42;;;16.40;99.90;;;;;;4257457;33;20564;-67
2022/06/20 08:45:14;;;;;;;0.30;0.30;;;16.50;99.90;;;;;;4264581;33;20199;-67
2022/06/20 08:48:20;;;;;;;0.40;0.40;;;16.40;99.90;;;;;;4257717;33;20092;-67
2022/06/20 08:51:07;;;;;;;0.37;0.37;;;16.30;99.90;;;;;;4264652;33;20575;-67
2022/06/20 08:54:04;;;;;;;0.30;0.30;;;16.20;99.90;;;;;;4257437;33;20084;-67
2022/06/20 08:56:57;;;;;;;1.02;0.60;;;16.10;99.90;;;;;;4260598;33;20183;-67
2022/06/20 08:59:40;;;;;;;0.52;0.40;;;16.00;99.90;;;;;;4255481;33;20956;-67
2022/06/20 09:02:39;;;;;;;0.50;0.50;;;16.00;99.90;;;;;;4250860;33;20364;-67
2022/06/20 09:05:39;;;;;;;0.80;0.50;;;16.20;99.90;;;;;;4230226;33;21234;-67
2022/06/20 09:08:39;;;;;;;0.57;0.57;;;16.10;99.90;;;;;;4252299;33;20338;-67
2022/06/20 09:11:19;;;;;;;0.80;0.60;;;16.30;99.90;;;;;;4249781;33;20682;-67
2022/06/20 09:14:11;;;;;;;5.20;1.75;;;16.30;99.90;;;;;;4259791;33;20168;-68
2022/06/20 09:17:03;;;;;;;2.47;0.73;;;16.30;99.90;;;;;;4258581;33;20910;-68
2022/06/20 09:19:53;;;;;;;0.55;0.55;;;16.40;99.90;;;;;;4242111;33;21255;-68
2022/06/20 09:22:46;;;;;;;0.62;0.43;;;16.40;99.90;;;;;;4229257;33;20214;-68
2022/06/20 09:25:27;;;;;;;4.28;0.40;;;16.20;99.90;;;;;;4231710;33;20417;-67
2022/06/20 09:28:17;;;;;;;0.85;0.60;;;16.00;99.90;;;;;;4225320;33;20135;-67
2022/06/20 09:31:09;;;;;;;0.80;0.73;;;16.00;99.90;;;;;;4238997;33;20485;-67
2022/06/20 09:34:10;;;;;;;0.50;0.50;;;16.20;99.90;;;;;;4225317;33;22035;-67
2022/06/20 09:36:57;;;;;;;0.68;0.62;;;16.20;99.90;;;;;;4239047;33;20176;-66
2022/06/20 09:40:03;;;;;;;1.70;0.70;;;16.10;99.90;;;;;;4259171;33;20450;-66
2022/06/20 09:42:43;;;;;;;7.57;0.77;;;16.10;99.90;;;;;;4241658;33;20321;-66
2022/06/20 09:45:39;;;;;;;0.30;0.30;;;16.20;99.90;;;;;;4264202;33;20111;-68
2022/06/20 09:48:13;;;;;;;3.12;0.35;;;16.30;99.90;;;;;;4248643;33;20125;-67
2022/06/20 09:50:46;;;;;;;0.80;0.60;;;16.40;99.90;;;;;;4267121;33;20116;-67
2022/06/20 09:53:31;;;;;;;0.35;0.35;;;16.40;99.90;;;;;;4246094;33;20192;-66
2022/06/20 09:56:08;;;;;;;2.65;1.20;;;16.40;99.90;;;;;;4234608;33;20256;-66
2022/06/20 09:59:02;;;;;;;0.47;0.32;;;16.50;99.90;;;;;;4254710;33;20104;-67
2022/06/20 10:01:41;;;;;;;1.48;0.50;;;16.50;99.90;;;;;;4247772;33;20171;-67
2022/06/20 10:04:31;;;;;;;0.80;0.57;;;16.50;99.90;;;;;;4233927;33;21624;-67
2022/06/20 10:07:08;;;;;;;0.93;0.85;;;16.40;99.90;;;;;;4230582;33;20857;-67
2022/06/20 10:09:47;;;;;;;0.40;0.40;;;16.30;99.90;;;;;;4240913;33;20853;-67
2022/06/20 10:12:29;;;;;;;0.60;0.50;;;16.20;99.90;;;;;;4251205;33;20200;-67
2022/06/20 10:15:22;;;;;;;0.40;0.40;;;16.40;99.90;;;;;;4260716;33;20225;-67
2022/06/20 10:18:12;;;;;;;1.27;0.45;;;16.40;99.90;;;;;;4255003;33;20620;-67
2022/06/20 10:20:47;;;;;;;0.50;0.50;;;16.30;99.90;;;;;;4251542;33;20601;-67
2022/06/20 10:23:37;;;;;;;3.97;1.42;;;16.30;99.90;;;;;;4225111;33;20527;-67
2022/06/20 10:26:42;;;;;;;0.30;0.30;;;16.30;99.90;;;;;;4242449;33;20594;-67
2022/06/20 10:29:28;;;;;;;3.17;0.50;;;16.40;99.90;;;;;;4257744;33;20294;-67
2022/06/20 10:32:07;;;;;;;0.40;0.40;;;16.30;99.90;;;;;;4253848;33;20275;-67
2022/06/20 10:34:42;;;;;;;1.23;0.57;;;16.30;99.90;;;;;;4238091;33;20100;-67
2022/06/20 10:37:23;;;;;;;0.57;0.50;;;16.40;99.90;;;;;;4260472;33;20099;-67
2022/06/20 10:40:15;;;;;;;0.35;0.35;;;16.60;99.90;;;;;;4268257;33;20370;-66
2022/06/20 10:42:57;;;;;;;1.87;1.25;;;16.50;99.90;;;;;;4258347;33;20810;-66
2022/06/20 10:45:39;;;;;;;7.07;0.82;;;16.40;99.90;;;;;;4274238;33;20243;-67
2022/06/20 10:48:45;;;;;;;0.20;0.20;;;16.40;99.90;;;;;;4269341;33;20105;-66
2022/06/20 10:51:20;;;;;;;0.62;0.57;;;16.30;99.90;;;;;;4256461;33;21035;-67
2022/06/20 10:53:57;;;;;;;0.65;0.65;;;16.20;99.90;;;;;;4239013;33;20936;-67
2022/06/20 10:56:38;;;;;;;1.08;0.77;;;16.20;99.90;;;;;;4239560;33;20108;-67
2022/06/20 10:59:16;;;;;;;0.62;0.60;;;16.20;99.90;;;;;;4257442;33;21317;-67
2022/06/20 11:01:53;;;;;;;0.40;0.40;;;16.30;99.90;;;;;;4262796;33;20124;-67
2022/06/20 11:04:30;;;;;;;5.57;1.77;;;16.40;99.90;;;;;;4242235;33;20096;-67
2022/06/20 11:07:20;;;;;;;0.65;0.40;;;16.30;99.90;;;;;;4259269;33;20250;-68
2022/06/20 11:10:13;;;;;;;0.43;0.43;;;16.20;99.90;;;;;;4258277;33;20410;-66
2022/06/20 11:12:56;;;;;;;0.88;0.60;;;16.20;99.90;;;;;;4273495;33;20096;-67
2022/06/20 11:15:27;;;;;;;1.15;0.62;;;16.10;99.90;;;;;;4272599;33;20093;-66
2022/06/20 11:18:08;;;;;;;0.50;0.50;;;16.00;99.90;;;;;;4261150;33;20422;-66
2022/06/20 11:20:38;;;;;;;;;;;15.90;99.90;;;;;;4260454;33;20071;-66
2022/06/20 11:23:18;;;;;;;0.30;0.30;;;15.80;99.90;;;;;;4250321;33;20434;-66
2022/06/20 11:26:24;;;;;;;0.60;0.60;;;15.70;99.90;;;;;;4248252;33;20301;-66
2022/06/20 11:28:59;;;;;;;0.90;0.60;;;15.70;99.90;;;;;;4256447;33;20414;-67
2022/06/20 11:31:32;;;;;;;0.93;0.50;;;15.80;99.90;;;;;;4260903;33;20107;-67
2022/06/20 11:34:16;;;;;;;0.98;0.85;;;15.80;99.90;;;;;;4249864;33;20261;-66
2022/06/20 11:37:11;;;;;;;0.37;0.37;;;15.80;99.90;;;;;;4252749;33;21655;-67
2022/06/20 11:39:54;;;;;;;1.58;0.77;;;15.90;99.90;;;;;;4260943;33;20357;-67
2022/06/20 11:42:45;;;;;;;0.40;0.40;;;15.90;99.90;;;;;;4235827;33;20162;-67
2022/06/20 11:45:28;;;;;;;2.00;0.50;;;15.80;99.90;;;;;;4243386;33;20538;-66
2022/06/20 11:48:10;;;;;;;0.32;0.32;;;15.80;99.90;;;;;;4242743;33;20326;-66
2022/06/20 11:51:00;;;;;;;0.40;0.40;;;15.90;99.90;;;;;;4256321;33;20484;-66
2022/06/20 11:54:05;;;;;;;0.50;0.50;;;16.00;99.90;;;;;;4240232;33;20178;-66
2022/06/20 11:56:59;;;;;;;0.60;0.52;;;16.00;99.90;;;;;;4250832;33;20104;-64
2022/06/20 11:59:53;;;;;;;1.20;0.93;;;16.00;99.90;;;;;;4263000;33;20533;-64
2022/06/20 12:02:42;;;;;;;0.30;0.30;;;16.00;99.90;;;;;;4264902;33;20475;-64
2022/06/20 12:05:33;;;;;;;0.30;0.30;;;15.90;99.90;;;;;;4248897;33;20132;-66
2022/06/20 12:08:09;;;;;;;0.40;0.40;;;15.80;99.90;;;;;;4272985;33;20159;-65
2022/06/20 12:10:56;;;;;;;0.40;0.40;;;15.80;99.90;;;;;;4265167;33;20828;-63
2022/06/20 12:13:53;;;;;;;0.20;0.20;;;15.90;99.90;;;;;;4261250;33;20746;-65
2022/06/20 12:16:43;;;;;;;0.28;0.28;;;15.90;99.90;;;;;;4268768;33;20525;-64
2022/06/20 12:23:26;;;;;;;0.30;0.30;;;15.90;99.90;;;;;;4252172;33;20112;-65
2022/06/20 12:25:26;;;;;;;0.30;0.30;;;16.00;99.90;;;;;;4249020;33;20104;-65
2022/06/20 12:27:51;;;;;;;;;;;16.00;99.90;;;;;;4262221;33;20287;-65
2022/06/20 12:30:18;;;;;;;0.43;0.40;;;16.00;99.90;;;;;;4256832;33;20695;-65
2022/06/20 12:32:48;;;;;;;0.32;0.32;;;15.90;99.90;;;;;;4230280;33;20283;-64
2022/06/20 12:35:37;;;;;;;0.30;0.30;;;15.90;99.90;;;;;;4244485;33;20202;-65
2022/06/20 12:38:14;;;;;;;1.25;1.12;;;15.90;99.90;;;;;;4262552;33;20953;-66
2022/06/20 12:40:44;;;;;;;0.30;0.30;;;15.80;99.90;;;;;;4264528;33;20818;-65
2022/06/20 12:43:15;;;;;;;0.22;0.22;;;15.80;99.90;;;;;;4260973;33;20076;-66
2022/06/20 12:46:08;;;;;;;0.30;0.30;;;15.80;99.90;;;;;;4269433;33;20398;-66
2022/06/20 12:49:00;;;;;;;0.30;0.30;;;15.90;99.90;;;;;;4268396;33;20263;-65
2022/06/20 12:51:36;;;;;;;0.30;0.30;;;16.00;99.90;;;;;;4274784;33;20588;-65
2022/06/20 12:54:34;;;;;;;0.20;0.20;;;15.90;99.90;;;;;;4254917;33;20381;-65
2022/06/20 12:57:27;;;;;;;0.30;0.30;;;16.10;99.90;;;;;;4256694;33;20632;-66
2022/06/20 13:00:12;;;;;;;0.50;0.50;;;16.00;99.90;;;;;;4265034;33;20959;-66
2022/06/20 13:03:06;;;;;;;0.30;0.30;;;16.00;99.90;;;;;;4262014;33;20268;-66
2022/06/20 13:05:43;;;;;;;0.25;0.25;;;16.00;99.90;;;;;;4269352;33;21112;-66
2022/06/20 13:08:36;;;;;;;0.40;0.40;;;15.90;99.90;;;;;;4280775;33;20100;-66
2022/06/20 13:11:16;;;;;;;0.50;0.50;;;15.90;99.90;;;;;;4266792;33;20374;-66
2022/06/20 13:14:15;;;;;;;0.28;0.28;;;15.90;99.90;;;;;;4263450;33;20351;-67
2022/06/20 13:16:55;;;;;;;0.30;0.30;;;15.90;99.90;;;;;;4275069;33;20422;-65
2022/06/20 13:19:41;;;;;;;0.35;0.35;;;15.80;99.90;;;;;;4270254;33;20643;-65
2022/06/20 13:22:16;;;;;;;0.35;0.35;;;15.90;99.90;;;;;;4266838;33;20360;-66
2022/06/20 13:25:09;;;;;;;0.32;0.32;;;15.80;99.90;;;;;;4251576;33;22015;-66
2022/06/20 13:28:00;;;;;;;0.30;0.30;;;15.80;99.90;;;;;;4239562;33;21202;-65
2022/06/20 13:31:06;;;;;;;0.50;0.50;;;15.70;99.90;;;;;;4257993;33;20076;-65
2022/06/20 13:33:56;;;;;;;0.30;0.30;;;15.60;99.90;;;;;;4246794;33;20380;-65
2022/06/20 13:36:46;;;;;;;0.30;0.30;;;15.60;99.90;;;;;;4268686;33;20096;-65
2022/06/20 13:39:19;;;;;;;1.00;0.65;;;15.60;99.90;;;;;;4273892;33;20124;-66
2022/06/20 13:41:49;;;;;;;0.30;0.30;;;15.80;99.90;;;;;;4261355;33;20276;-66
2022/06/20 13:44:38;;;;;;;0.40;0.40;;;15.90;99.90;;;;;;4248692;33;20396;-65